Arvin, California
Current Conditions -  °F | °C
As of 10:54 AM on Wednesday 26 Nov 2014 (Local Time) from KBFL Reporting Station
Haze Haze  
Wind Chill: 60°   Ceiling: Unl
Heat Index: 60°   Visibility: 4mi
Dew Point: 42°   Wind: 5mph
Humidity: 51%   Direction: 160°SSE
Pressure: 30.31"   Gusts: NA
Location:  35.21°N, 118.82°W
Report Text: KBFL 261854Z 16004KT 4SM HZ CLR 16/06 A3031 RMK AO2 SLP262 T01560056
Loading
Personal Weather Stations






























Interactive Weather Map New forecast layout! Learn more

10-Day Weather Forecast

Advertisements
Track Severe Weather on mobile